createdAt,value
2018-09-30T00:01:52.528Z,17.97
2018-09-30T00:04:23.754Z,20.00
2018-09-30T00:06:54.820Z,21.77
2018-09-30T00:09:30.381Z,17.03
2018-09-30T00:12:03.095Z,18.37
2018-09-30T00:14:34.173Z,19.23
2018-09-30T00:17:05.785Z,20.57
2018-09-30T00:19:37.267Z,21.50
2018-09-30T00:22:08.574Z,21.43
2018-09-30T00:24:45.332Z,25.03
2018-09-30T00:27:22.037Z,21.03
2018-09-30T00:29:52.359Z,27.30
2018-09-30T00:32:23.671Z,24.30
2018-09-30T00:34:55.141Z,24.13
2018-09-30T00:37:26.670Z,20.73
2018-09-30T00:39:58.176Z,22.90
2018-09-30T00:42:29.357Z,22.50
2018-09-30T00:45:00.620Z,23.90
2018-09-30T00:47:31.816Z,28.40
2018-09-30T00:50:03.850Z,21.37
2018-09-30T00:52:35.349Z,23.10
2018-09-30T00:55:06.453Z,22.90
2018-09-30T00:57:37.713Z,21.73
2018-09-30T01:00:09.032Z,21.73
2018-09-30T01:02:40.416Z,36.73
2018-09-30T01:05:10.873Z,21.13
2018-09-30T01:07:42.055Z,29.70
2018-09-30T01:10:12.806Z,26.53
2018-09-30T01:12:43.871Z,26.23
2018-09-30T01:15:15.324Z,25.70
2018-09-30T01:17:45.923Z,25.73
2018-09-30T01:20:16.089Z,23.60
2018-09-30T01:22:47.695Z,24.73
2018-09-30T01:25:18.669Z,36.40
2018-09-30T01:27:50.129Z,25.63
2018-09-30T01:30:21.029Z,26.27
2018-09-30T01:32:52.709Z,31.17
2018-09-30T01:35:24.160Z,27.23
2018-09-30T01:37:55.668Z,31.27
2018-09-30T01:40:26.994Z,29.40
2018-09-30T01:42:58.517Z,29.33
2018-09-30T01:45:29.599Z,30.77
2018-09-30T01:48:00.660Z,29.50
2018-09-30T01:50:31.782Z,28.60
2018-09-30T01:53:03.040Z,26.53
2018-09-30T01:55:34.391Z,29.37
2018-09-30T01:58:05.434Z,24.70
2018-09-30T02:00:36.630Z,22.90
2018-09-30T02:03:07.580Z,27.23
2018-09-30T02:05:39.167Z,25.83
2018-09-30T02:08:10.290Z,25.37
2018-09-30T02:10:41.817Z,27.00
2018-09-30T02:13:12.932Z,22.83
2018-09-30T02:15:44.462Z,22.97
2018-09-30T02:18:15.521Z,28.57
2018-09-30T02:20:45.867Z,24.43
2018-09-30T02:23:17.208Z,26.77
2018-09-30T02:25:48.612Z,25.77
2018-09-30T02:28:19.993Z,25.27
2018-09-30T02:30:50.994Z,32.10
2018-09-30T02:33:21.643Z,29.37
2018-09-30T02:35:53.456Z,35.23
2018-09-30T02:38:25.119Z,33.33
2018-09-30T02:40:56.268Z,29.00
2018-09-30T02:43:28.515Z,28.83
2018-09-30T02:45:59.200Z,30.93
2018-09-30T02:48:30.517Z,27.77
2018-09-30T02:51:00.734Z,29.43
2018-09-30T02:53:33.904Z,28.57
2018-09-30T02:56:05.308Z,33.02
2018-09-30T02:58:36.238Z,25.83
2018-09-30T03:01:07.995Z,26.90
2018-09-30T03:03:40.029Z,30.60
2018-09-30T03:06:16.144Z,28.67
2018-09-30T03:08:52.841Z,23.97
2018-09-30T03:11:24.387Z,25.80
2018-09-30T03:13:55.181Z,29.63
2018-09-30T03:16:25.591Z,28.17
2018-09-30T03:18:55.918Z,32.00
2018-09-30T03:21:27.554Z,28.90
2018-09-30T03:23:59.271Z,29.60
2018-09-30T03:26:30.263Z,29.73
2018-09-30T03:29:02.150Z,33.37
2018-09-30T03:31:33.696Z,31.53
2018-09-30T03:34:06.052Z,32.60
2018-09-30T03:36:37.466Z,33.63
2018-09-30T03:39:09.311Z,31.23
2018-09-30T03:41:40.442Z,30.40
2018-09-30T03:44:12.278Z,32.13
2018-09-30T03:46:43.792Z,27.23
2018-09-30T03:49:14.199Z,28.27
2018-09-30T03:51:45.851Z,27.37
2018-09-30T03:54:16.278Z,29.33
2018-09-30T03:56:46.910Z,29.17
2018-09-30T03:59:17.546Z,29.37
2018-09-30T04:01:48.963Z,33.93
2018-09-30T04:04:20.244Z,30.67
2018-09-30T04:06:51.277Z,38.13
2018-09-30T04:09:22.772Z,34.50
2018-09-30T04:11:54.144Z,34.20
2018-09-30T04:14:25.575Z,37.27
2018-09-30T04:16:56.740Z,39.40
2018-09-30T04:19:28.175Z,36.33
2018-09-30T04:21:59.839Z,37.63
2018-09-30T04:24:31.386Z,34.23
2018-09-30T04:27:02.310Z,39.53
2018-09-30T04:29:33.355Z,33.37
2018-09-30T04:32:04.657Z,30.80
2018-09-30T04:34:35.996Z,34.00
2018-09-30T04:37:07.692Z,33.47
2018-09-30T04:39:39.693Z,34.90
2018-09-30T04:42:10.466Z,33.60
2018-09-30T04:44:41.325Z,37.53
2018-09-30T04:47:12.252Z,33.27
2018-09-30T04:49:43.526Z,34.63
2018-09-30T04:52:15.436Z,32.70
2018-09-30T04:54:46.913Z,32.03
2018-09-30T04:57:18.719Z,31.17
2018-09-30T04:59:50.581Z,27.97
2018-09-30T05:02:22.361Z,31.37
2018-09-30T05:04:53.490Z,33.03
2018-09-30T05:07:24.220Z,27.80
2018-09-30T05:09:55.199Z,32.97
2018-09-30T05:12:26.137Z,37.40
2018-09-30T05:15:00.839Z,31.57
2018-09-30T05:17:33.829Z,29.33
2018-09-30T05:20:05.890Z,28.27
2018-09-30T05:22:36.229Z,28.10
2018-09-30T05:25:07.567Z,24.43
2018-09-30T05:27:37.933Z,27.57
2018-09-30T05:30:09.569Z,26.83
2018-09-30T05:32:40.129Z,30.00
2018-09-30T05:35:11.169Z,25.93
2018-09-30T05:37:41.650Z,26.60
2018-09-30T05:40:12.123Z,27.20
2018-09-30T05:42:42.229Z,23.30
2018-09-30T05:45:12.394Z,23.60
2018-09-30T05:47:43.168Z,22.33
2018-09-30T05:50:13.949Z,20.83
2018-09-30T05:52:44.128Z,22.77
2018-09-30T05:55:14.898Z,21.63
2018-09-30T05:57:45.590Z,27.83
2018-09-30T06:00:17.504Z,23.27
2018-09-30T06:02:49.028Z,21.30
2018-09-30T06:05:20.243Z,23.57
2018-09-30T06:07:51.047Z,23.43
2018-09-30T06:10:22.586Z,21.03
2018-09-30T06:12:53.667Z,19.70
2018-09-30T06:15:25.241Z,19.77
2018-09-30T06:17:55.735Z,17.23
2018-09-30T06:20:27.431Z,18.23
2018-09-30T06:22:59.390Z,18.70
2018-09-30T06:25:31.087Z,18.57
2018-09-30T06:28:02.239Z,16.93
2018-09-30T06:30:34.119Z,15.87
2018-09-30T06:33:06.155Z,17.93
2018-09-30T06:35:38.449Z,16.13
2018-09-30T06:38:10.272Z,18.80
2018-09-30T06:40:41.755Z,18.57
2018-09-30T06:43:13.467Z,18.50
2018-09-30T06:45:45.388Z,16.30
2018-09-30T06:48:17.474Z,17.70
2018-09-30T06:50:48.958Z,14.70
2018-09-30T06:53:20.396Z,13.37
2018-09-30T06:55:52.529Z,14.70
2018-09-30T06:58:24.068Z,18.33
2018-09-30T07:00:55.937Z,15.37
2018-09-30T07:03:27.735Z,15.50
2018-09-30T07:05:59.608Z,16.30
2018-09-30T07:08:31.498Z,17.17
2018-09-30T07:11:03.293Z,14.23
2018-09-30T07:13:34.661Z,17.80
2018-09-30T07:16:06.073Z,14.07
2018-09-30T07:18:36.757Z,12.60
2018-09-30T07:21:07.829Z,17.37
2018-09-30T07:23:39.319Z,16.03
2018-09-30T07:26:10.294Z,17.57
2018-09-30T07:28:40.776Z,13.90
2018-09-30T07:31:11.963Z,14.80
2018-09-30T07:33:43.310Z,13.10
2018-09-30T07:36:14.655Z,13.20
2018-09-30T07:38:46.112Z,16.07
2018-09-30T07:41:17.313Z,14.10
2018-09-30T07:43:48.769Z,14.07
2018-09-30T07:46:21.032Z,13.40
2018-09-30T07:48:53.442Z,13.07
2018-09-30T07:51:25.204Z,11.77
2018-09-30T07:53:56.581Z,15.10
2018-09-30T07:56:28.173Z,13.17
2018-09-30T07:58:58.501Z,14.23
2018-09-30T08:01:29.665Z,14.53
2018-09-30T08:04:00.568Z,14.53
2018-09-30T08:06:32.072Z,13.23
2018-09-30T08:09:03.570Z,12.97
2018-09-30T08:11:35.536Z,14.13
2018-09-30T08:14:08.218Z,13.27
2018-09-30T08:16:39.743Z,15.30
2018-09-30T08:19:10.828Z,12.33
2018-09-30T08:21:42.745Z,13.20
2018-09-30T08:24:14.491Z,14.17
2018-09-30T08:26:46.251Z,13.33
2018-09-30T08:29:17.759Z,14.23
2018-09-30T08:31:49.397Z,16.27
2018-09-30T08:34:21.059Z,11.67
2018-09-30T08:36:52.537Z,12.63
2018-09-30T08:39:24.494Z,12.23
2018-09-30T08:41:54.907Z,9.93
2018-09-30T08:44:26.075Z,11.67
2018-09-30T08:46:57.802Z,12.03
2018-09-30T08:49:29.627Z,11.47
2018-09-30T08:52:01.171Z,12.83
2018-09-30T08:54:32.834Z,16.20
2018-09-30T08:57:04.324Z,14.20
2018-09-30T08:59:35.988Z,14.57
2018-09-30T09:02:07.603Z,16.80
2018-09-30T09:04:39.392Z,15.63
2018-09-30T09:07:11.550Z,16.50
2018-09-30T09:09:43.452Z,14.80
2018-09-30T09:12:15.364Z,14.97
2018-09-30T09:14:47.068Z,12.70
2018-09-30T09:17:18.523Z,12.73
2018-09-30T09:19:50.182Z,14.03
2018-09-30T09:22:21.977Z,12.10
2018-09-30T09:24:53.328Z,12.93
2018-09-30T09:27:24.735Z,10.63
2018-09-30T09:29:56.118Z,11.67
2018-09-30T09:32:27.718Z,14.67
2018-09-30T09:34:58.854Z,10.00
2018-09-30T09:37:30.529Z,10.90
2018-09-30T09:40:01.665Z,12.30
2018-09-30T09:42:33.052Z,10.10
2018-09-30T09:45:04.394Z,12.90
2018-09-30T09:47:35.924Z,13.40
2018-09-30T09:50:07.624Z,14.70
2018-09-30T09:52:39.382Z,13.27
2018-09-30T09:55:10.369Z,15.97
2018-09-30T09:57:41.176Z,10.77
2018-09-30T10:00:13.027Z,14.93
2018-09-30T10:02:44.654Z,10.93
2018-09-30T10:05:16.487Z,12.10
2018-09-30T10:07:46.830Z,13.00
2018-09-30T10:10:18.333Z,12.80
2018-09-30T10:12:49.475Z,12.23
2018-09-30T10:15:21.170Z,13.33
2018-09-30T10:17:52.074Z,14.17
2018-09-30T10:20:22.580Z,13.37
2018-09-30T10:22:53.586Z,14.90
2018-09-30T10:25:26.205Z,14.43
2018-09-30T10:27:58.685Z,16.97
2018-09-30T10:30:30.287Z,15.30
2018-09-30T10:33:02.624Z,15.87
2018-09-30T10:35:34.365Z,17.70
2018-09-30T10:38:06.337Z,23.63
2018-09-30T10:40:37.785Z,17.70
2018-09-30T10:43:09.459Z,21.93
2018-09-30T10:45:40.716Z,19.43
2018-09-30T10:48:11.978Z,19.23
2018-09-30T10:50:42.172Z,21.13
2018-09-30T10:53:13.464Z,22.77
2018-09-30T10:55:44.461Z,20.37
2018-09-30T10:58:15.479Z,21.57
2018-09-30T11:00:46.650Z,22.03
2018-09-30T11:03:17.790Z,24.03
2018-09-30T11:05:49.081Z,22.53
2018-09-30T11:08:20.521Z,22.97
2018-09-30T11:10:51.608Z,24.63
2018-09-30T11:13:22.713Z,23.40
2018-09-30T11:15:53.931Z,25.07
2018-09-30T11:18:24.354Z,28.80
2018-09-30T11:20:55.124Z,23.03
2018-09-30T11:23:26.091Z,24.43
2018-09-30T11:25:56.997Z,20.87
2018-09-30T11:28:28.024Z,18.70
2018-09-30T11:30:58.869Z,24.80
2018-09-30T11:33:29.585Z,21.43
2018-09-30T11:36:00.679Z,21.97
2018-09-30T11:38:30.667Z,21.37
2018-09-30T11:41:01.356Z,19.33
2018-09-30T11:43:31.561Z,21.87
2018-09-30T11:46:02.314Z,22.00
2018-09-30T11:48:33.126Z,21.50
2018-09-30T11:51:03.094Z,21.87
2018-09-30T11:53:33.059Z,20.43
2018-09-30T11:56:04.078Z,20.03
2018-09-30T11:58:34.710Z,22.63
2018-09-30T12:01:05.561Z,24.97
2018-09-30T12:03:36.224Z,25.30
2018-09-30T12:06:06.609Z,25.03
2018-09-30T12:08:37.916Z,23.40
2018-09-30T12:11:08.247Z,26.87
2018-09-30T12:13:38.973Z,23.13
2018-09-30T12:16:09.635Z,23.73
2018-09-30T12:18:40.342Z,21.50
2018-09-30T12:21:10.863Z,24.57
2018-09-30T12:23:41.256Z,21.37
2018-09-30T12:26:12.119Z,24.87
2018-09-30T12:28:42.728Z,24.50
2018-09-30T12:31:13.414Z,23.97
2018-09-30T12:33:43.814Z,29.70
2018-09-30T12:36:14.476Z,22.77
2018-09-30T12:38:45.469Z,23.73
2018-09-30T12:41:16.267Z,21.90
2018-09-30T12:43:46.888Z,21.60
2018-09-30T12:46:17.914Z,22.47
2018-09-30T12:48:48.673Z,22.53
2018-09-30T12:51:19.310Z,24.07
2018-09-30T12:53:49.937Z,26.70
2018-09-30T12:56:20.273Z,24.77
2018-09-30T12:58:51.505Z,24.23
2018-09-30T13:01:22.442Z,24.10
2018-09-30T13:03:53.492Z,22.30
2018-09-30T13:06:24.698Z,24.43
2018-09-30T13:08:56.324Z,22.40
2018-09-30T13:11:28.163Z,22.47
2018-09-30T13:13:58.843Z,20.87
2018-09-30T13:16:29.992Z,23.00
2018-09-30T13:19:01.467Z,25.27
2018-09-30T13:21:31.766Z,25.77
2018-09-30T13:24:02.852Z,27.23
2018-09-30T13:26:33.758Z,25.60
2018-09-30T13:29:05.130Z,22.23
2018-09-30T13:31:37.035Z,25.03
2018-09-30T13:34:08.412Z,27.20
2018-09-30T13:36:39.614Z,25.93
2018-09-30T13:39:12.216Z,26.87
2018-09-30T13:41:43.487Z,28.40
2018-09-30T13:44:14.596Z,25.97
2018-09-30T13:46:45.664Z,25.90
2018-09-30T13:49:16.634Z,26.93
2018-09-30T13:51:47.118Z,25.27
2018-09-30T13:54:18.160Z,24.97
2018-09-30T13:56:49.413Z,26.40
2018-09-30T13:59:20.682Z,23.73
2018-09-30T14:01:51.557Z,26.30
2018-09-30T14:04:22.537Z,27.20
2018-09-30T14:06:52.825Z,31.40
2018-09-30T14:09:24.310Z,24.77
2018-09-30T14:11:55.477Z,28.10
2018-09-30T14:14:25.549Z,24.67
2018-09-30T14:16:55.531Z,26.77
2018-09-30T14:19:25.621Z,28.77
2018-09-30T14:21:55.603Z,27.13
2018-09-30T14:24:26.566Z,22.83
2018-09-30T14:26:56.681Z,22.83
2018-09-30T14:29:27.790Z,24.97
2018-09-30T14:31:58.557Z,24.30
2018-09-30T14:34:29.294Z,24.83
2018-09-30T14:36:59.398Z,23.07
2018-09-30T14:39:30.459Z,26.47
2018-09-30T14:42:01.113Z,25.73
2018-09-30T14:44:31.247Z,23.67
2018-09-30T14:47:01.456Z,23.20
2018-09-30T14:49:33.091Z,25.20
2018-09-30T14:52:03.912Z,26.33
2018-09-30T14:54:34.971Z,24.93
2018-09-30T14:57:05.722Z,24.60
2018-09-30T14:59:36.812Z,27.33
2018-09-30T15:02:07.843Z,26.63
2018-09-30T15:04:39.170Z,23.80
2018-09-30T15:07:09.823Z,18.67
2018-09-30T15:09:40.778Z,19.07
2018-09-30T15:12:10.617Z,20.07
2018-09-30T15:14:40.816Z,23.90
2018-09-30T15:17:10.841Z,19.17
2018-09-30T15:19:41.004Z,19.83
2018-09-30T15:22:11.034Z,18.60
2018-09-30T15:24:41.031Z,18.60
2018-09-30T15:27:10.992Z,18.43
2018-09-30T15:29:41.669Z,19.87
2018-09-30T15:32:11.559Z,20.67
2018-09-30T15:34:41.468Z,21.30
2018-09-30T15:37:11.473Z,20.73
2018-09-30T15:39:41.623Z,19.97
2018-09-30T15:42:11.737Z,23.17
2018-09-30T15:44:41.832Z,24.70
2018-09-30T15:47:11.917Z,24.00
2018-09-30T15:49:41.890Z,17.87
2018-09-30T15:52:11.717Z,22.90
2018-09-30T15:54:41.651Z,21.10
2018-09-30T15:57:11.714Z,18.80
2018-09-30T15:59:41.714Z,18.57
2018-09-30T16:02:11.700Z,16.50
2018-09-30T16:04:41.830Z,16.47
2018-09-30T16:07:11.829Z,12.93
2018-09-30T16:09:41.843Z,13.27
2018-09-30T16:12:11.806Z,14.00
2018-09-30T16:14:41.802Z,14.40
2018-09-30T16:17:11.838Z,14.57
2018-09-30T16:19:41.881Z,16.97
2018-09-30T16:22:11.715Z,18.87
2018-09-30T16:24:41.773Z,17.13
2018-09-30T16:27:11.703Z,18.43
2018-09-30T16:29:41.834Z,18.87
2018-09-30T16:32:11.704Z,19.47
2018-09-30T16:34:42.130Z,17.43
2018-09-30T16:37:12.219Z,18.07
2018-09-30T16:39:42.416Z,21.67
2018-09-30T16:42:12.333Z,22.13
2018-09-30T16:44:42.475Z,22.50
2018-09-30T16:47:12.377Z,18.73
2018-09-30T16:49:42.433Z,20.83
2018-09-30T16:52:12.299Z,20.37
2018-09-30T16:54:42.175Z,24.37
2018-09-30T16:57:12.182Z,23.93
2018-09-30T16:59:42.300Z,26.50
2018-09-30T17:02:12.506Z,27.20
2018-09-30T17:04:42.545Z,31.27
2018-09-30T17:07:12.563Z,31.63
2018-09-30T17:09:42.662Z,29.20
2018-09-30T17:12:12.536Z,30.20
2018-09-30T17:14:43.046Z,33.47
2018-09-30T17:17:13.121Z,30.53
2018-09-30T17:19:43.226Z,33.73
2018-09-30T17:22:13.562Z,33.40
2018-09-30T17:24:43.599Z,33.70
2018-09-30T17:27:13.543Z,34.47
2018-09-30T17:29:43.517Z,33.40
2018-09-30T17:32:13.420Z,33.33
2018-09-30T17:34:43.520Z,33.23
2018-09-30T17:37:13.550Z,34.90
2018-09-30T17:39:43.556Z,35.57
2018-09-30T17:42:13.533Z,36.63
2018-09-30T17:44:43.688Z,41.43
2018-09-30T17:47:13.871Z,45.27
2018-09-30T17:49:43.965Z,53.33
2018-09-30T17:52:13.865Z,52.30
2018-09-30T17:54:43.953Z,51.47
2018-09-30T17:57:14.057Z,52.00
2018-09-30T17:59:44.219Z,55.57
2018-09-30T18:02:14.294Z,48.00
2018-09-30T18:04:44.403Z,47.33
2018-09-30T18:07:14.448Z,52.70
2018-09-30T18:09:44.746Z,47.47
2018-09-30T18:12:14.664Z,40.60
2018-09-30T18:14:44.864Z,33.93
2018-09-30T18:17:14.787Z,34.23
2018-09-30T18:19:44.897Z,34.33
2018-09-30T18:22:14.908Z,34.90
2018-09-30T18:24:45.150Z,35.87
2018-09-30T18:27:15.169Z,32.67
2018-09-30T18:29:45.462Z,31.80
2018-09-30T18:32:15.473Z,32.43
2018-09-30T18:34:45.364Z,33.20
2018-09-30T18:37:15.387Z,33.93
2018-09-30T18:39:45.326Z,35.83
2018-09-30T18:42:15.174Z,29.60
2018-09-30T18:44:45.204Z,34.07
2018-09-30T18:47:15.158Z,33.63
2018-09-30T18:49:46.040Z,32.40
2018-09-30T18:52:15.867Z,33.30
2018-09-30T18:54:45.826Z,33.50
2018-09-30T18:57:17.855Z,31.07
2018-09-30T18:59:48.651Z,30.63
2018-09-30T19:02:20.140Z,31.17
2018-09-30T19:04:51.127Z,31.83
2018-09-30T19:07:21.760Z,32.17
2018-09-30T19:09:52.698Z,32.17
2018-09-30T19:12:26.194Z,33.60
2018-09-30T19:14:57.196Z,31.60
2018-09-30T19:17:28.739Z,31.90
2018-09-30T19:19:59.869Z,33.00
2018-09-30T19:22:31.146Z,29.37
2018-09-30T19:25:02.941Z,29.30
2018-09-30T19:27:33.587Z,25.33
2018-09-30T19:30:04.243Z,27.20
2018-09-30T19:32:34.925Z,29.13
2018-09-30T19:35:05.233Z,26.83
2018-09-30T19:37:35.903Z,24.33
2018-09-30T19:40:08.314Z,26.87
2018-09-30T19:42:41.198Z,26.73
2018-09-30T19:45:12.907Z,28.00
2018-09-30T19:47:43.785Z,28.20
2018-09-30T19:50:13.800Z,26.67
2018-09-30T19:52:43.830Z,21.63
2018-09-30T19:55:13.817Z,23.93
2018-09-30T19:57:43.938Z,24.63
2018-09-30T20:00:14.281Z,22.50
2018-09-30T20:02:44.569Z,23.33
2018-09-30T20:05:14.941Z,21.33
2018-09-30T20:07:46.608Z,23.47
2018-09-30T20:10:16.511Z,21.23
2018-09-30T20:12:46.513Z,22.50
2018-09-30T20:15:16.513Z,22.33
2018-09-30T20:17:47.091Z,21.07
2018-09-30T20:20:17.205Z,22.40
2018-09-30T20:22:47.288Z,24.13
2018-09-30T20:25:17.471Z,23.90
2018-09-30T20:27:47.542Z,23.83
2018-09-30T20:30:17.693Z,23.53
2018-09-30T20:32:47.496Z,24.00
2018-09-30T20:35:17.518Z,22.00
2018-09-30T20:37:47.583Z,21.30
2018-09-30T20:40:17.608Z,21.53
2018-09-30T20:42:47.478Z,18.40
2018-09-30T20:45:17.595Z,18.87
2018-09-30T20:47:47.648Z,19.80
2018-09-30T20:50:17.628Z,20.93
2018-09-30T20:52:47.509Z,22.10
2018-09-30T20:55:17.442Z,25.20
2018-09-30T20:57:47.441Z,22.70
2018-09-30T21:00:17.563Z,19.30
2018-09-30T21:02:47.529Z,15.17
2018-09-30T21:05:31.496Z,16.27
2018-09-30T21:08:01.430Z,17.20
2018-09-30T21:10:31.475Z,18.17
2018-09-30T21:13:01.301Z,18.60
2018-09-30T21:15:31.262Z,19.27
2018-09-30T21:18:01.219Z,18.87
2018-09-30T21:20:31.131Z,18.43
2018-09-30T21:23:01.082Z,21.80
2018-09-30T21:25:31.028Z,20.17
2018-09-30T21:28:00.961Z,18.63
2018-09-30T21:30:30.957Z,19.07
2018-09-30T21:33:00.775Z,18.33
2018-09-30T21:35:30.636Z,20.23
2018-09-30T21:38:00.553Z,18.97
2018-09-30T21:40:30.553Z,17.63
2018-09-30T21:43:00.531Z,15.93
2018-09-30T21:45:30.542Z,16.17
2018-09-30T21:48:00.485Z,17.90
2018-09-30T21:50:30.539Z,16.47
2018-09-30T21:53:00.434Z,15.40
2018-09-30T21:55:30.405Z,17.60
2018-09-30T21:58:00.442Z,14.50
2018-09-30T22:00:35.716Z,17.27
2018-09-30T22:03:05.788Z,15.60
2018-09-30T22:05:36.082Z,15.03
2018-09-30T22:08:07.236Z,16.00
2018-09-30T22:10:38.217Z,13.57
2018-09-30T22:13:08.249Z,13.97
2018-09-30T22:15:38.133Z,14.07
2018-09-30T22:18:08.202Z,13.37
2018-09-30T22:20:38.157Z,14.57
2018-09-30T22:23:08.220Z,13.87
2018-09-30T22:25:38.215Z,14.43
2018-09-30T22:28:08.293Z,14.03
2018-09-30T22:30:38.214Z,14.80
2018-09-30T22:33:08.804Z,13.93
2018-09-30T22:35:39.513Z,14.10
2018-09-30T22:38:10.325Z,14.87
2018-09-30T22:40:41.413Z,14.90
2018-09-30T22:43:12.983Z,14.97
2018-09-30T22:45:43.694Z,16.77
2018-09-30T22:48:14.476Z,15.33
2018-09-30T22:50:44.492Z,21.27
2018-09-30T22:53:14.990Z,16.57
2018-09-30T22:55:45.718Z,15.90
2018-09-30T22:58:16.548Z,16.67
2018-09-30T23:00:47.135Z,17.20
2018-09-30T23:03:18.160Z,16.27
2018-09-30T23:05:48.229Z,15.83
2018-09-30T23:08:18.075Z,15.03
2018-09-30T23:10:48.838Z,16.13
2018-09-30T23:13:20.214Z,14.27
2018-09-30T23:15:50.960Z,15.33
2018-09-30T23:18:21.904Z,16.27
2018-09-30T23:20:52.129Z,14.63
2018-09-30T23:23:22.480Z,14.10
2018-09-30T23:25:53.132Z,14.37
2018-09-30T23:28:23.694Z,14.33
2018-09-30T23:30:53.775Z,14.53
2018-09-30T23:33:24.429Z,16.33
2018-09-30T23:35:54.991Z,14.03
2018-09-30T23:38:25.775Z,14.37
2018-09-30T23:40:56.395Z,14.50
2018-09-30T23:43:27.032Z,13.70
2018-09-30T23:45:57.935Z,16.40
2018-09-30T23:48:28.757Z,12.60
2018-09-30T23:50:59.436Z,13.27
2018-09-30T23:53:30.086Z,10.17
2018-09-30T23:56:01.121Z,11.40
2018-09-30T23:58:32.211Z,11.40
